Time;durP1;ratioP1;P1;durP2;ratioP2;P2;SDS_P1;SDS_P2;PMS_P1;PMS_P2;Temp;Humidity;BMP_temperature;BMP_pressure;BME280_temperature;BME280_humidity;BME280_pressure;Samples;Min_cycle;Max_cycle;Signal;HPM_P1;HPM_P2
2022/08/16 00:02:21;;;;;;;;;;;21.60;96.50;;;;;;5061864;28;20044;-54
2022/08/16 00:04:46;;;;;;;16.27;14.65;;;21.60;97.00;;;;;;5057552;28;19917;-55
2022/08/16 00:07:12;;;;;;;21.02;16.33;;;21.60;96.60;;;;;;5054110;28;20044;-55
2022/08/16 00:09:37;;;;;;;;;;;21.60;96.60;;;;;;5052419;28;20106;-56
2022/08/16 00:12:04;;;;;;;19.40;17.27;;;21.60;96.90;;;;;;5069376;28;20061;-54
2022/08/16 00:14:31;;;;;;;19.25;17.38;;;21.70;96.70;;;;;;5069821;28;20093;-54
2022/08/16 00:16:58;;;;;;;19.15;17.15;;;21.60;96.80;;;;;;5069578;28;20064;-54
2022/08/16 00:19:28;;;;;;;18.58;16.88;;;21.60;96.80;;;;;;5073553;28;20044;-55
2022/08/16 00:21:54;;;;;;;17.05;15.30;;;21.60;96.80;;;;;;5071296;28;20028;-54
2022/08/16 00:24:21;;;;;;;19.23;15.35;;;21.60;96.80;;;;;;5053325;28;20091;-55
2022/08/16 00:26:47;;;;;;;22.02;18.73;;;21.50;96.80;;;;;;5053635;28;20042;-57
2022/08/16 00:29:14;;;;;;;;;;;21.50;96.90;;;;;;5054429;28;20043;-56
2022/08/16 00:31:39;;;;;;;19.98;18.08;;;21.40;97.30;;;;;;5053658;28;19940;-52
2022/08/16 00:34:05;;;;;;;;;;;21.40;97.10;;;;;;5053847;28;20033;-55
2022/08/16 00:36:31;;;;;;;22.05;19.92;;;21.40;97.50;;;;;;5053313;28;19950;-54
2022/08/16 00:38:56;;;;;;;;;;;21.40;97.30;;;;;;5053509;28;20068;-53
2022/08/16 00:41:23;;;;;;;22.17;19.88;;;21.40;97.90;;;;;;5056001;28;19942;-54
2022/08/16 00:43:49;;;;;;;24.48;20.13;;;21.30;97.60;;;;;;5071993;28;20469;-53
2022/08/16 00:46:29;;;;;;;23.10;20.80;;;21.30;97.50;;;;;;5060529;28;20056;-56
2022/08/16 00:48:55;;;;;;;23.65;21.20;;;21.30;97.70;;;;;;5063862;28;20116;-55
2022/08/16 00:51:22;;;;;;;;;;;21.20;97.60;;;;;;5060586;28;20553;-55
2022/08/16 00:53:49;;;;;;;27.67;22.35;;;21.20;98.00;;;;;;5053764;28;20378;-53
2022/08/16 00:56:20;;;;;;;26.65;23.92;;;21.20;97.70;;;;;;5060318;28;20152;-54
2022/08/16 00:58:47;;;;;;;22.63;20.52;;;21.10;97.80;;;;;;5048620;28;20033;-55
2022/08/16 01:01:15;;;;;;;24.05;21.95;;;21.10;97.80;;;;;;5060025;28;20553;-54
2022/08/16 01:03:43;;;;;;;27.80;21.60;;;21.20;98.00;;;;;;5058141;28;20422;-52
2022/08/16 01:06:11;;;;;;;25.25;21.80;;;21.20;97.80;;;;;;5061898;28;20051;-56
2022/08/16 01:08:37;;;;;;;21.65;19.45;;;21.20;97.80;;;;;;5060440;28;20049;-51
2022/08/16 01:11:04;;;;;;;21.25;19.20;;;21.20;97.90;;;;;;5054094;28;20456;-52
2022/08/16 01:13:32;;;;;;;18.92;17.05;;;21.20;97.90;;;;;;5054697;28;20694;-56
2022/08/16 01:16:15;;;;;;;22.20;20.08;;;21.20;97.80;;;;;;5063173;28;20036;-55
2022/08/16 01:19:01;;;;;;;29.60;22.55;;;21.20;97.90;;;;;;5052414;28;20049;-54
2022/08/16 01:21:52;;;;;;;23.35;21.10;;;21.20;97.70;;;;;;5064803;28;20128;-55
2022/08/16 01:24:38;;;;;;;22.55;20.10;;;21.20;97.70;;;;;;5052443;28;20036;-52
2022/08/16 01:27:08;;;;;;;21.88;19.85;;;21.30;97.70;;;;;;5053310;28;20056;-51
2022/08/16 01:29:41;;;;;;;20.40;18.20;;;21.30;97.60;;;;;;5052264;28;20037;-50
2022/08/16 01:32:07;;;;;;;22.00;19.95;;;21.30;97.70;;;;;;5055377;28;20048;-53
2022/08/16 01:34:32;;;;;;;;;;;21.30;97.80;;;;;;5067240;28;20041;-54
2022/08/16 01:37:04;;;;;;;21.40;19.20;;;21.30;98.10;;;;;;5068354;28;19921;-56
2022/08/16 01:39:30;;;;;;;24.90;22.10;;;21.30;97.80;;;;;;5052353;28;20401;-50
2022/08/16 01:41:56;;;;;;;27.80;25.10;;;21.30;97.90;;;;;;5056616;28;20099;-55
2022/08/16 01:44:22;;;;;;;;;;;21.30;97.70;;;;;;5052771;28;20041;-52
2022/08/16 01:46:48;;;;;;;26.92;23.98;;;21.30;98.10;;;;;;5055384;28;20024;-50
2022/08/16 01:49:23;;;;;;;27.75;24.88;;;21.20;97.90;;;;;;5065288;28;20082;-53
2022/08/16 01:51:59;;;;;;;27.67;24.98;;;21.20;97.90;;;;;;5066582;28;20490;-54
2022/08/16 01:54:25;;;;;;;28.23;23.77;;;21.20;98.10;;;;;;5052148;28;20099;-56
2022/08/16 01:56:51;;;;;;;;;;;21.20;97.90;;;;;;5060472;28;20036;-55
2022/08/16 01:59:18;;;;;;;25.75;22.48;;;21.10;98.10;;;;;;5061582;28;20335;-52
2022/08/16 02:01:46;;;;;;;25.70;21.05;;;21.10;97.80;;;;;;5069116;28;20060;-56
2022/08/16 02:04:12;;;;;;;24.42;21.83;;;21.00;97.70;;;;;;5065253;28;20123;-53
2022/08/16 02:06:39;;;;;;;;;;;20.80;97.70;;;;;;5050943;28;20473;-50
2022/08/16 02:09:06;;;;;;;26.58;23.73;;;20.70;98.20;;;;;;5056376;28;19923;-53
2022/08/16 02:11:34;;;;;;;32.17;25.38;;;20.70;98.20;;;;;;5071843;28;20051;-54
2022/08/16 02:13:59;;;;;;;30.23;27.02;;;20.60;98.30;;;;;;5071402;28;20087;-56
2022/08/16 02:16:25;;;;;;;;;;;20.60;98.40;;;;;;5071900;28;20072;-50
2022/08/16 02:18:51;;;;;;;31.13;27.65;;;20.60;98.70;;;;;;5071447;28;19971;-48
2022/08/16 02:21:17;;;;;;;;;;;20.60;98.50;;;;;;5065881;28;20040;-49
2022/08/16 02:23:44;;;;;;;29.17;26.23;;;20.60;98.70;;;;;;5051297;28;19921;-54
2022/08/16 02:26:09;;;;;;;30.65;25.90;;;20.60;98.40;;;;;;5051388;28;20526;-54
2022/08/16 02:28:36;;;;;;;;;;;20.60;98.20;;;;;;5051873;28;20119;-55
2022/08/16 02:31:05;;;;;;;27.77;24.27;;;20.60;98.60;;;;;;5051772;28;20011;-54
2022/08/16 02:33:32;;;;;;;29.15;26.15;;;20.50;98.30;;;;;;5050789;28;20041;-51
2022/08/16 02:35:57;;;;;;;28.08;25.35;;;20.50;98.50;;;;;;5052420;28;20049;-55
2022/08/16 02:38:23;;;;;;;;;;;20.50;98.60;;;;;;5070629;28;20089;-52
2022/08/16 02:40:48;;;;;;;29.15;25.83;;;20.50;98.90;;;;;;5061091;28;19923;-51
2022/08/16 02:43:14;;;;;;;;;;;20.60;98.60;;;;;;5069004;28;20052;-53
2022/08/16 02:45:40;;;;;;;27.27;24.50;;;20.60;98.90;;;;;;5069139;28;19917;-54
2022/08/16 02:48:06;;;;;;;;;;;20.60;98.60;;;;;;5054715;28;20114;-54
2022/08/16 02:50:31;;;;;;;27.77;24.98;;;20.50;98.50;;;;;;5067262;28;20017;-54
2022/08/16 02:52:57;;;;;;;;;;;20.50;98.30;;;;;;5065688;28;20505;-51
2022/08/16 02:55:22;;;;;;;26.85;23.83;;;20.40;98.50;;;;;;5065172;28;20350;-50
2022/08/16 02:57:48;;;;;;;;;;;20.40;98.50;;;;;;5063227;28;20037;-54
2022/08/16 03:00:15;;;;;;;27.35;23.88;;;20.40;98.80;;;;;;5054903;28;19916;-55
2022/08/16 03:02:43;;;;;;;24.88;22.42;;;20.40;98.60;;;;;;5059822;28;20040;-50
2022/08/16 03:05:12;;;;;;;29.75;25.10;;;20.40;98.60;;;;;;5065367;28;20048;-53
2022/08/16 03:07:39;;;;;;;33.55;24.27;;;20.50;98.80;;;;;;5052818;28;20414;-50
2022/08/16 03:10:07;;;;;;;25.00;22.40;;;20.50;98.70;;;;;;5064267;28;20054;-51
2022/08/16 03:12:33;;;;;;;26.52;23.83;;;20.50;98.60;;;;;;5061750;28;20036;-55
2022/08/16 03:14:59;;;;;;;;;;;20.60;98.60;;;;;;5068432;28;20078;-54
2022/08/16 03:17:25;;;;;;;24.60;21.80;;;20.60;98.80;;;;;;5050829;28;19920;-55
2022/08/16 03:19:52;;;;;;;;;;;20.50;98.30;;;;;;5051879;28;20478;-54
2022/08/16 03:22:18;;;;;;;;;;;20.50;98.50;;;;;;5064847;28;19940;-53
2022/08/16 03:24:44;;;;;;;31.17;26.20;;;20.40;98.40;;;;;;5050426;28;19924;-50
2022/08/16 03:27:09;;;;;;;;;;;20.30;98.40;;;;;;5066206;28;20036;-54
2022/08/16 03:29:35;;;;;;;28.25;24.88;;;20.30;98.60;;;;;;5051797;28;19952;-56
2022/08/16 03:32:02;;;;;;;;;;;20.20;98.40;;;;;;5067231;28;20461;-53
2022/08/16 03:34:29;;;;;;;33.75;25.80;;;20.20;98.60;;;;;;5052980;28;19951;-55
2022/08/16 03:36:56;;;;;;;25.52;23.10;;;20.20;98.50;;;;;;5063896;28;20041;-49
2022/08/16 03:39:22;;;;;;;39.30;26.70;;;20.20;98.50;;;;;;5068628;28;20044;-55
2022/08/16 03:41:49;;;;;;;27.38;24.65;;;20.10;98.80;;;;;;5053720;28;20379;-55
2022/08/16 03:44:15;;;;;;;29.08;23.63;;;20.10;98.80;;;;;;5066003;28;20040;-51
2022/08/16 03:46:42;;;;;;;;;;;20.10;98.80;;;;;;5056353;28;20075;-52
2022/08/16 03:49:10;;;;;;;24.67;22.10;;;20.10;99.00;;;;;;5052691;28;19916;-50
2022/08/16 03:51:40;;;;;;;28.73;23.85;;;20.10;98.70;;;;;;5056966;28;20283;-55
2022/08/16 03:54:06;;;;;;;25.35;22.55;;;20.10;98.70;;;;;;5052562;28;20388;-49
2022/08/16 03:56:32;;;;;;;25.67;22.92;;;20.10;98.70;;;;;;5064617;28;20043;-54
2022/08/16 03:58:58;;;;;;;;;;;20.10;98.60;;;;;;5055157;28;20493;-54
2022/08/16 04:01:25;;;;;;;31.20;24.33;;;20.10;98.80;;;;;;5066250;28;20216;-52
2022/08/16 04:03:51;;;;;;;25.50;22.98;;;20.10;98.50;;;;;;5055747;28;20041;-50
2022/08/16 04:06:17;;;;;;;26.15;23.42;;;20.10;98.40;;;;;;5059004;28;20120;-54
2022/08/16 04:08:42;;;;;;;29.40;23.02;;;20.00;98.50;;;;;;5052677;28;20128;-52
2022/08/16 04:11:08;;;;;;;;;;;20.00;98.50;;;;;;5052778;28;20371;-50
2022/08/16 04:13:34;;;;;;;25.27;22.63;;;20.00;98.60;;;;;;5069344;28;19923;-55
2022/08/16 04:16:01;;;;;;;;;;;20.00;98.50;;;;;;5070229;28;20037;-50
2022/08/16 04:18:27;;;;;;;26.60;22.92;;;20.00;98.70;;;;;;5069713;28;20398;-49
2022/08/16 04:20:53;;;;;;;;;;;20.00;98.40;;;;;;5070260;28;20044;-55
2022/08/16 04:23:19;;;;;;;26.73;23.42;;;19.90;98.60;;;;;;5065719;28;19917;-54
2022/08/16 04:25:45;;;;;;;28.52;24.10;;;19.90;98.40;;;;;;5049666;28;20091;-53
2022/08/16 04:28:12;;;;;;;33.67;24.08;;;19.80;98.40;;;;;;5049274;28;20536;-54
2022/08/16 04:30:38;;;;;;;28.10;24.25;;;19.80;98.50;;;;;;5049552;28;20640;-53
2022/08/16 04:33:04;;;;;;;29.20;24.00;;;19.80;98.60;;;;;;5049526;28;20376;-53
2022/08/16 04:35:30;;;;;;;27.42;23.60;;;19.80;98.70;;;;;;5049863;28;20040;-53
2022/08/16 04:37:56;;;;;;;;;;;19.80;98.60;;;;;;5050937;28;20112;-54
2022/08/16 04:40:23;;;;;;;25.83;23.20;;;19.70;98.70;;;;;;5051092;28;19997;-53
2022/08/16 04:42:50;;;;;;;25.13;22.42;;;19.60;98.40;;;;;;5049968;28;20041;-54
2022/08/16 04:45:17;;;;;;;29.08;24.15;;;19.60;98.40;;;;;;5060561;28;20089;-50
2022/08/16 04:47:43;;;;;;;27.48;23.95;;;19.50;98.40;;;;;;5050440;28;20502;-57
2022/08/16 04:50:21;;;;;;;;;;;19.50;98.30;;;;;;5059731;28;20107;-54
2022/08/16 04:52:48;;;;;;;;;;;19.50;98.60;;;;;;5049718;28;20124;-54
2022/08/16 04:55:22;;;;;;;35.63;23.90;;;19.40;98.60;;;;;;5054439;28;19916;-53
2022/08/16 04:57:50;;;;;;;27.77;23.80;;;19.50;98.60;;;;;;5059379;28;20048;-54
2022/08/16 05:00:23;;;;;;;27.63;23.92;;;19.50;98.80;;;;;;5068030;28;20036;-55
2022/08/16 05:02:51;;;;;;;26.15;22.92;;;19.50;99.00;;;;;;5052853;28;20037;-50
2022/08/16 05:05:17;;;;;;;24.60;22.10;;;19.50;98.80;;;;;;5065336;28;20293;-51
2022/08/16 05:07:44;;;;;;;;;;;19.50;98.70;;;;;;5068064;28;20036;-51
2022/08/16 05:10:10;;;;;;;27.05;22.02;;;19.60;98.90;;;;;;5056783;28;20054;-56
2022/08/16 05:12:35;;;;;;;;;;;19.60;98.70;;;;;;5053715;28;20080;-57
2022/08/16 05:15:02;;;;;;;26.05;20.92;;;19.50;98.90;;;;;;5053783;28;19967;-50
2022/08/16 05:17:28;;;;;;;26.25;22.33;;;19.60;98.70;;;;;;5071795;28;20054;-58
2022/08/16 05:19:53;;;;;;;26.10;23.45;;;19.70;98.70;;;;;;5069469;28;20119;-54
2022/08/16 05:22:19;;;;;;;23.88;21.35;;;19.70;98.70;;;;;;5055949;28;20390;-53
2022/08/16 05:24:45;;;;;;;;;;;19.70;98.80;;;;;;5054132;28;20043;-55
2022/08/16 05:27:10;;;;;;;27.52;22.40;;;19.70;98.80;;;;;;5064783;28;19924;-53
2022/08/16 05:29:36;;;;;;;26.08;21.40;;;19.70;98.60;;;;;;5060672;28;20090;-56
2022/08/16 05:32:02;;;;;;;;;;;19.70;98.70;;;;;;5064282;28;20165;-54
2022/08/16 05:34:28;;;;;;;28.92;21.65;;;19.70;98.90;;;;;;5062718;28;19916;-53
2022/08/16 05:36:56;;;;;;;;;;;19.80;98.80;;;;;;5052336;28;20037;-56
2022/08/16 05:39:22;;;;;;;26.55;21.30;;;19.80;98.90;;;;;;5053414;28;19917;-52
2022/08/16 05:41:49;;;;;;;23.15;20.67;;;19.90;98.70;;;;;;5062329;28;20127;-52
2022/08/16 05:44:16;;;;;;;40.08;22.05;;;20.00;98.70;;;;;;5065538;28;20033;-54
2022/08/16 05:46:43;;;;;;;30.33;20.17;;;20.00;98.60;;;;;;5062108;28;20418;-53
2022/08/16 05:49:09;;;;;;;22.45;19.63;;;20.10;98.60;;;;;;5052256;28;20056;-55
2022/08/16 05:51:39;;;;;;;23.90;21.15;;;20.10;98.60;;;;;;5058748;28;20037;-55
2022/08/16 05:54:05;;;;;;;23.73;21.15;;;20.20;98.50;;;;;;5062150;28;20036;-54
2022/08/16 05:56:31;;;;;;;23.42;19.92;;;20.20;98.50;;;;;;5054649;28;20296;-54
2022/08/16 05:58:57;;;;;;;;;;;20.30;98.50;;;;;;5055795;28;20496;-52
2022/08/16 06:01:22;;;;;;;23.25;20.77;;;20.40;98.60;;;;;;5064389;28;19963;-56
2022/08/16 06:03:48;;;;;;;;;;;20.40;98.40;;;;;;5056340;28;20032;-57
2022/08/16 06:06:13;;;;;;;27.60;20.45;;;20.50;98.40;;;;;;5061611;28;19924;-52
2022/08/16 06:08:39;;;;;;;;;;;20.60;98.30;;;;;;5072398;28;20101;-50
2022/08/16 06:11:07;;;;;;;24.58;19.02;;;20.70;98.60;;;;;;5054771;28;20025;-54
2022/08/16 06:13:33;;;;;;;21.65;19.42;;;20.80;98.40;;;;;;5051567;28;20037;-52
2022/08/16 06:15:59;;;;;;;23.48;19.38;;;20.90;98.20;;;;;;5051423;28;20048;-55
2022/08/16 06:18:24;;;;;;;;;;;21.00;98.40;;;;;;5051962;28;20044;-54
2022/08/16 06:20:50;;;;;;;24.88;19.58;;;21.20;98.20;;;;;;5051841;28;20170;-54
2022/08/16 06:23:16;;;;;;;;;;;21.30;98.00;;;;;;5059771;28;20047;-54
2022/08/16 06:25:41;;;;;;;21.80;19.17;;;21.30;97.50;;;;;;5051745;28;20301;-49
2022/08/16 06:28:08;;;;;;;;;;;21.30;97.60;;;;;;5051871;28;20047;-51
2022/08/16 06:30:34;;;;;;;22.27;19.23;;;21.20;97.50;;;;;;5051534;28;20439;-51
2022/08/16 06:33:00;;;;;;;;;;;21.30;97.50;;;;;;5066580;28;20263;-49
2022/08/16 06:35:26;;;;;;;28.08;20.23;;;21.20;97.50;;;;;;5051066;28;19974;-50
2022/08/16 06:37:51;;;;;;;;;;;21.20;97.20;;;;;;5051759;28;20057;-50
2022/08/16 06:40:17;;;;;;;21.08;19.00;;;21.20;97.50;;;;;;5051522;28;19916;-55
2022/08/16 06:42:42;;;;;;;;;;;21.30;97.40;;;;;;5051573;28;20048;-49
2022/08/16 06:45:08;;;;;;;21.95;19.75;;;21.30;97.50;;;;;;5051141;28;19924;-51
2022/08/16 06:47:34;;;;;;;;;;;21.30;97.60;;;;;;5051261;28;20041;-53
2022/08/16 06:49:59;;;;;;;21.60;19.50;;;21.40;97.30;;;;;;5050856;28;19944;-50
2022/08/16 06:52:25;;;;;;;;;;;21.40;97.20;;;;;;5051406;28;20048;-53
2022/08/16 06:54:50;;;;;;;22.90;20.63;;;21.50;97.50;;;;;;5055221;28;20066;-49
2022/08/16 06:57:18;;;;;;;;;;;21.60;97.50;;;;;;5054083;28;20444;-52
2022/08/16 06:59:45;;;;;;;20.45;18.35;;;21.80;97.20;;;;;;5051171;28;19971;-51
2022/08/16 07:02:11;;;;;;;20.35;17.33;;;21.80;96.90;;;;;;5053229;28;20542;-52
2022/08/16 07:04:36;;;;;;;;;;;21.90;96.40;;;;;;5070821;28;20149;-55
2022/08/16 07:07:04;;;;;;;19.67;17.67;;;21.90;96.10;;;;;;5070954;28;20282;-55
2022/08/16 07:09:30;;;;;;;21.27;18.27;;;22.00;95.90;;;;;;5070185;28;20044;-55
2022/08/16 07:11:56;;;;;;;;;;;22.00;95.90;;;;;;5071456;28;20409;-55
2022/08/16 07:14:21;;;;;;;19.70;17.80;;;22.10;95.60;;;;;;5067167;28;19920;-49
2022/08/16 07:16:47;;;;;;;19.17;17.25;;;22.10;95.70;;;;;;5032538;28;20041;-50
2022/08/16 07:19:15;;;;;;;;;;;22.10;95.60;;;;;;5051131;28;20036;-55
2022/08/16 07:21:41;;;;;;;24.52;20.00;;;22.10;95.80;;;;;;5050809;28;19917;-51
2022/08/16 07:24:08;;;;;;;21.33;18.70;;;22.20;95.50;;;;;;5050366;28;20045;-52
2022/08/16 07:26:33;;;;;;;20.65;18.70;;;22.30;95.60;;;;;;5051253;28;20041;-50
2022/08/16 07:28:59;;;;;;;;;;;22.40;95.20;;;;;;5051974;28;20053;-51
2022/08/16 07:31:25;;;;;;;24.05;19.30;;;22.40;95.00;;;;;;5050181;28;20442;-52
2022/08/16 07:33:50;;;;;;;;;;;22.50;95.10;;;;;;5050500;28;20526;-51
2022/08/16 07:36:17;;;;;;;22.80;20.48;;;22.60;94.90;;;;;;5050366;28;19931;-51
2022/08/16 07:38:43;;;;;;;24.55;21.08;;;22.60;94.90;;;;;;5050065;28;20494;-49
2022/08/16 07:41:09;;;;;;;24.10;21.40;;;22.70;94.80;;;;;;5050701;28;20033;-48
2022/08/16 07:43:34;;;;;;;;;;;22.70;94.70;;;;;;5054047;28;20047;-53
2022/08/16 07:46:00;;;;;;;23.20;20.33;;;22.80;94.40;;;;;;5061463;28;20339;-48
2022/08/16 07:48:26;;;;;;;23.60;21.23;;;22.80;94.40;;;;;;5050358;28;20371;-52
2022/08/16 07:50:52;;;;;;;;;;;22.80;94.50;;;;;;5051471;28;20512;-51
2022/08/16 07:53:17;;;;;;;26.05;23.20;;;22.90;94.30;;;;;;5068089;28;19923;-51
2022/08/16 07:55:43;;;;;;;23.90;21.60;;;23.00;94.40;;;;;;5069132;28;20044;-49
2022/08/16 07:58:09;;;;;;;24.58;22.00;;;23.10;94.30;;;;;;5069484;28;20044;-54
2022/08/16 08:00:36;;;;;;;25.05;22.38;;;23.10;94.10;;;;;;5066101;28;20053;-50
2022/08/16 08:03:03;;;;;;;23.52;21.33;;;23.30;94.00;;;;;;5065996;28;20048;-49
2022/08/16 08:05:28;;;;;;;23.52;21.10;;;23.30;93.80;;;;;;5069707;28;20441;-54
2022/08/16 08:07:55;;;;;;;25.50;21.60;;;23.40;93.70;;;;;;5055387;28;20124;-54
2022/08/16 08:10:22;;;;;;;25.33;20.52;;;23.40;93.60;;;;;;5058797;28;20040;-50
2022/08/16 08:12:50;;;;;;;23.27;20.83;;;23.50;93.90;;;;;;5066226;28;20068;-54
2022/08/16 08:15:17;;;;;;;25.00;21.90;;;23.70;94.00;;;;;;5058880;28;20045;-52
2022/08/16 08:17:43;;;;;;;23.65;21.15;;;23.80;93.70;;;;;;5059857;28;20040;-49
2022/08/16 08:20:13;;;;;;;23.25;20.80;;;23.90;93.70;;;;;;5049929;28;20403;-51
2022/08/16 08:22:39;;;;;;;27.48;22.55;;;24.10;93.30;;;;;;5065733;28;20131;-54
2022/08/16 08:25:06;;;;;;;25.75;21.95;;;24.10;93.00;;;;;;5055991;28;20128;-52
2022/08/16 08:27:32;;;;;;;22.30;19.63;;;24.20;92.90;;;;;;5066859;28;20036;-50
2022/08/16 08:29:57;;;;;;;22.88;20.33;;;24.30;92.70;;;;;;5077581;28;20044;-54
2022/08/16 08:32:24;;;;;;;21.25;19.05;;;24.30;92.20;;;;;;5058716;28;20041;-54
2022/08/16 08:34:49;;;;;;;21.80;18.80;;;24.40;92.50;;;;;;5065257;28;20045;-51
2022/08/16 08:37:15;;;;;;;22.90;20.45;;;24.50;92.30;;;;;;5062956;28;20064;-50
2022/08/16 08:39:40;;;;;;;21.50;19.35;;;24.60;92.40;;;;;;5071957;28;20042;-50
2022/08/16 08:42:06;;;;;;;20.98;17.52;;;24.70;92.10;;;;;;5067942;28;20048;-51
2022/08/16 08:44:33;;;;;;;21.02;17.55;;;24.70;91.80;;;;;;5072728;28;20517;-50
2022/08/16 08:47:01;;;;;;;19.48;17.13;;;24.80;91.50;;;;;;5065861;28;20040;-54
2022/08/16 08:49:29;;;;;;;19.40;17.52;;;24.90;91.20;;;;;;5062986;28;20036;-56
2022/08/16 08:51:55;;;;;;;19.13;17.13;;;24.90;91.30;;;;;;5068816;28;20045;-50
2022/08/16 08:54:20;;;;;;;19.15;16.80;;;25.00;90.90;;;;;;5067543;28;20512;-52
2022/08/16 08:56:46;;;;;;;20.70;17.17;;;25.10;90.90;;;;;;5067428;28;20079;-52
2022/08/16 08:59:12;;;;;;;21.17;16.70;;;25.10;90.80;;;;;;5072354;28;20044;-55
2022/08/16 09:01:39;;;;;;;19.65;16.30;;;25.20;90.30;;;;;;5067515;28;20040;-50
2022/08/16 09:04:05;;;;;;;24.55;15.45;;;25.20;90.10;;;;;;5072477;28;20440;-55
2022/08/16 09:06:32;;;;;;;20.20;15.88;;;25.30;90.30;;;;;;5071212;28;20040;-53
2022/08/16 09:08:59;;;;;;;20.20;16.60;;;25.40;90.10;;;;;;5072632;28;20565;-53
2022/08/16 09:11:25;;;;;;;21.13;15.85;;;25.40;89.20;;;;;;5053170;28;20654;-52
2022/08/16 09:13:51;;;;;;;20.13;15.05;;;25.50;89.10;;;;;;5059888;28;20048;-51
2022/08/16 09:16:17;;;;;;;15.88;14.40;;;25.60;89.70;;;;;;5058036;28;20135;-55
2022/08/16 09:18:44;;;;;;;14.10;12.63;;;25.70;89.20;;;;;;5064181;28;20529;-54
2022/08/16 09:21:10;;;;;;;13.73;11.30;;;25.70;88.80;;;;;;5062488;28;20068;-51
2022/08/16 09:23:36;;;;;;;19.42;13.30;;;25.80;87.70;;;;;;5071878;28;20498;-52
2022/08/16 09:26:04;;;;;;;12.98;11.25;;;25.90;87.70;;;;;;5066634;28;20371;-53
2022/08/16 09:28:30;;;;;;;8.73;7.90;;;26.00;86.90;;;;;;5066733;28;20064;-53
2022/08/16 09:30:55;;;;;;;14.30;8.18;;;26.00;84.80;;;;;;5070777;28;20060;-51
2022/08/16 09:33:21;;;;;;;9.55;8.35;;;26.10;83.90;;;;;;5066741;28;20044;-49
2022/08/16 09:35:48;;;;;;;12.35;8.57;;;26.10;83.60;;;;;;5064606;28;20401;-50
2022/08/16 09:38:14;;;;;;;13.77;10.05;;;26.10;84.10;;;;;;5058841;28;20033;-50
2022/08/16 09:40:41;;;;;;;12.27;9.43;;;26.20;83.00;;;;;;5070423;28;20410;-49
2022/08/16 09:43:13;;;;;;;8.70;7.90;;;26.20;82.80;;;;;;5071909;28;20082;-48
2022/08/16 09:45:40;;;;;;;10.68;9.15;;;26.30;82.60;;;;;;5072374;28;20028;-50
2022/08/16 09:48:07;;;;;;;13.65;8.60;;;26.30;82.60;;;;;;5061606;28;20040;-50
2022/08/16 09:50:34;;;;;;;10.45;8.80;;;26.40;82.70;;;;;;5060137;28;20406;-49
2022/08/16 09:53:01;;;;;;;13.57;9.40;;;26.50;81.80;;;;;;5057607;28;20506;-49
2022/08/16 09:55:27;;;;;;;30.52;9.68;;;26.60;82.30;;;;;;5063611;28;20178;-49
2022/08/16 09:57:53;;;;;;;8.98;7.88;;;26.60;81.90;;;;;;5071500;28;20553;-50
2022/08/16 10:00:19;;;;;;;7.75;6.93;;;26.70;81.40;;;;;;5071395;28;20075;-50
2022/08/16 10:02:46;;;;;;;10.70;8.20;;;26.80;82.10;;;;;;5072236;28;20068;-49
2022/08/16 10:05:12;;;;;;;10.68;8.98;;;26.80;80.90;;;;;;5064401;28;20110;-50
2022/08/16 10:07:38;;;;;;;13.70;8.38;;;26.80;80.00;;;;;;5049775;28;20509;-48
2022/08/16 10:10:05;;;;;;;7.28;6.57;;;26.80;81.40;;;;;;5057965;28;20388;-49
2022/08/16 10:15:19;;;;;;;8.80;7.10;;;27.00;80.40;;;;;;5066154;28;20071;-50
2022/08/16 10:17:46;;;;;;;8.60;6.30;;;27.00;80.10;;;;;;5066823;28;20151;-48
2022/08/16 10:20:13;;;;;;;7.63;6.28;;;27.10;79.90;;;;;;5065320;28;20525;-51
2022/08/16 10:22:39;;;;;;;13.52;8.48;;;27.20;78.80;;;;;;5067500;28;20076;-47
2022/08/16 10:25:06;;;;;;;8.20;6.15;;;27.30;78.70;;;;;;5058185;28;20480;-49
2022/08/16 10:27:34;;;;;;;8.27;7.43;;;27.30;78.40;;;;;;5067510;28;20318;-50
2022/08/16 10:30:00;;;;;;;7.53;4.68;;;27.30;77.70;;;;;;5053078;28;20510;-51
2022/08/16 10:32:26;;;;;;;5.22;4.82;;;27.40;76.60;;;;;;5065538;28;20055;-50
2022/08/16 10:34:51;;;;;;;7.15;5.75;;;27.40;75.80;;;;;;5058864;28;20049;-50
2022/08/16 10:37:17;;;;;;;5.60;4.57;;;27.40;76.50;;;;;;5066888;28;20068;-50
2022/08/16 10:39:43;;;;;;;8.73;4.97;;;27.50;76.30;;;;;;5058089;28;20043;-50
2022/08/16 10:42:11;;;;;;;7.07;3.80;;;27.60;76.10;;;;;;5062931;28;20121;-48
2022/08/16 10:44:37;;;;;;;8.00;4.00;;;27.70;76.00;;;;;;5061034;28;20136;-49
2022/08/16 10:47:03;;;;;;;5.70;5.13;;;27.70;73.70;;;;;;5064434;28;20072;-50
2022/08/16 10:49:29;;;;;;;5.75;4.68;;;27.70;73.90;;;;;;5064431;28;20076;-51
2022/08/16 10:51:55;;;;;;;5.47;4.63;;;27.70;73.90;;;;;;5070699;28;20119;-49
2022/08/16 10:54:21;;;;;;;24.88;6.22;;;27.70;74.60;;;;;;5070479;28;20036;-51
2022/08/16 10:56:47;;;;;;;6.00;5.40;;;27.80;74.50;;;;;;5060783;28;20043;-51
2022/08/16 10:59:13;;;;;;;6.45;4.15;;;27.90;73.80;;;;;;5057876;28;20120;-51
2022/08/16 11:01:39;;;;;;;5.63;3.85;;;28.00;73.10;;;;;;5070011;28;20047;-49
2022/08/16 11:04:05;;;;;;;5.45;4.95;;;28.00;73.30;;;;;;5065411;28;20048;-52
2022/08/16 11:06:31;;;;;;;6.85;4.88;;;28.10;73.50;;;;;;5060811;28;20047;-49
2022/08/16 11:08:57;;;;;;;4.65;2.97;;;28.20;73.70;;;;;;5060443;28;20037;-50
2022/08/16 11:11:25;;;;;;;3.05;2.85;;;28.20;71.90;;;;;;5068904;28;20524;-49
2022/08/16 11:13:51;;;;;;;4.32;3.22;;;28.30;71.00;;;;;;5066620;28;20116;-49
2022/08/16 11:16:18;;;;;;;3.63;3.28;;;28.30;70.90;;;;;;5070074;28;20541;-50
2022/08/16 11:18:44;;;;;;;4.45;4.05;;;28.40;70.70;;;;;;5062745;28;20082;-50
2022/08/16 11:21:11;;;;;;;7.90;3.28;;;28.50;70.50;;;;;;5069031;28;20454;-50
2022/08/16 11:23:36;;;;;;;3.50;3.20;;;28.50;70.50;;;;;;5068303;28;20437;-49
2022/08/16 11:26:02;;;;;;;8.00;3.60;;;28.50;69.80;;;;;;5068997;28;20036;-50
2022/08/16 11:28:28;;;;;;;8.00;3.67;;;28.60;70.10;;;;;;5067693;28;20036;-50
2022/08/16 11:30:53;;;;;;;11.82;3.28;;;28.70;69.80;;;;;;5070056;28;20040;-51
2022/08/16 11:33:19;;;;;;;4.10;2.83;;;28.70;68.40;;;;;;5067899;28;20036;-49
2022/08/16 11:35:45;;;;;;;4.35;2.33;;;28.70;68.60;;;;;;5058507;28;20486;-50
2022/08/16 11:38:14;;;;;;;4.63;1.92;;;28.70;67.60;;;;;;5068884;28;20522;-49
2022/08/16 11:40:49;;;;;;;2.45;1.98;;;28.80;65.90;;;;;;5067285;28;20044;-50
2022/08/16 11:43:18;;;;;;;6.18;2.38;;;28.80;65.30;;;;;;5067718;28;20041;-48
2022/08/16 11:45:45;;;;;;;6.18;1.80;;;28.80;64.70;;;;;;5066909;28;20494;-51
2022/08/16 11:48:12;;;;;;;4.55;2.50;;;28.80;64.60;;;;;;5070226;28;20036;-50
2022/08/16 11:50:39;;;;;;;2.60;1.58;;;28.80;65.20;;;;;;5066026;28;20044;-51
2022/08/16 11:53:05;;;;;;;5.57;1.80;;;28.80;65.10;;;;;;5069624;28;20059;-49
2022/08/16 11:55:33;;;;;;;6.55;2.53;;;28.90;65.70;;;;;;5065576;28;20032;-51
2022/08/16 11:57:59;;;;;;;3.85;1.27;;;29.10;65.40;;;;;;5055226;28;20391;-49
2022/08/16 12:00:27;;;;;;;5.30;1.63;;;29.10;64.00;;;;;;5065162;28;20055;-51
2022/08/16 12:02:52;;;;;;;2.30;1.92;;;29.20;64.30;;;;;;5069333;28;20074;-50
2022/08/16 12:05:18;;;;;;;3.33;1.25;;;29.20;64.00;;;;;;5063502;28;20045;-50
2022/08/16 12:07:44;;;;;;;5.50;1.50;;;29.20;62.90;;;;;;5069326;28;20044;-50
2022/08/16 12:10:13;;;;;;;4.70;1.88;;;29.20;63.40;;;;;;5065794;28;20535;-50
2022/08/16 12:12:40;;;;;;;4.63;1.80;;;29.30;63.00;;;;;;5070451;28;20032;-49
2022/08/16 12:15:06;;;;;;;4.85;2.00;;;29.40;62.70;;;;;;5072297;28;20060;-49
2022/08/16 12:17:32;;;;;;;3.08;1.42;;;29.40;62.50;;;;;;5072396;28;20394;-50
2022/08/16 12:19:59;;;;;;;3.22;1.65;;;29.50;62.90;;;;;;5065865;28;20040;-49
2022/08/16 12:22:24;;;;;;;2.75;1.70;;;29.50;62.10;;;;;;5073778;28;20048;-49
2022/08/16 12:24:51;;;;;;;6.75;2.08;;;29.60;63.10;;;;;;5070337;28;20032;-49
2022/08/16 12:27:17;;;;;;;3.42;1.35;;;29.60;62.20;;;;;;5072043;28;20037;-53
2022/08/16 12:29:42;;;;;;;4.85;1.52;;;29.70;62.00;;;;;;5070129;28;20038;-50
2022/08/16 12:32:08;;;;;;;3.83;1.13;;;29.80;60.90;;;;;;5073635;28;20634;-50
2022/08/16 12:34:34;;;;;;;3.80;1.30;;;29.80;62.10;;;;;;5070742;28;20033;-50
2022/08/16 12:37:01;;;;;;;3.80;1.42;;;29.90;61.70;;;;;;5066141;28;20041;-50
2022/08/16 12:39:28;;;;;;;2.50;1.15;;;29.90;61.00;;;;;;5060566;28;20051;-51
2022/08/16 12:41:55;;;;;;;5.38;1.92;;;29.80;60.40;;;;;;5061594;28;20047;-51
2022/08/16 12:44:20;;;;;;;3.42;1.00;;;29.70;60.60;;;;;;5062704;28;20520;-50
2022/08/16 12:48:56;;;;;;;2.95;1.15;;;29.60;61.50;;;;;;5070618;28;20044;-49
2022/08/16 12:49:32;;;;;;;33.10;3.13;;;29.50;61.10;;;;;;5061431;28;20036;-52